createdAt,value
2022-10-11T00:00:05.813Z,99.99
2022-10-11T00:01:05.832Z,99.99
2022-10-11T00:02:05.769Z,99.99
2022-10-11T00:03:05.767Z,99.99
2022-10-11T00:04:05.810Z,99.99
2022-10-11T00:05:05.743Z,99.99
2022-10-11T00:06:06.227Z,99.99
2022-10-11T00:07:05.726Z,99.99
2022-10-11T00:08:05.695Z,99.99
2022-10-11T00:09:05.702Z,99.99
2022-10-11T00:10:05.697Z,99.99
2022-10-11T00:11:05.712Z,99.99
2022-10-11T00:12:05.661Z,99.99
2022-10-11T00:13:05.678Z,99.99
2022-10-11T00:14:05.668Z,99.99
2022-10-11T00:15:05.652Z,99.99
2022-10-11T00:16:06.017Z,99.99
2022-10-11T00:17:05.648Z,99.99
2022-10-11T00:18:05.683Z,99.99
2022-10-11T00:19:05.800Z,99.99
2022-10-11T00:20:05.573Z,99.99
2022-10-11T00:21:05.581Z,99.99
2022-10-11T00:22:05.590Z,99.99
2022-10-11T00:23:05.553Z,99.99
2022-10-11T00:24:05.535Z,99.99
2022-10-11T00:25:05.544Z,99.99
2022-10-11T00:26:05.907Z,99.99
2022-10-11T00:27:05.520Z,99.99
2022-10-11T00:28:05.505Z,99.99
2022-10-11T00:29:05.513Z,99.99
2022-10-11T00:30:05.498Z,99.99
2022-10-11T00:31:05.881Z,99.99
2022-10-11T00:32:05.455Z,99.99
2022-10-11T00:33:05.455Z,99.99
2022-10-11T00:34:05.454Z,99.99
2022-10-11T00:35:05.435Z,99.99
2022-10-11T00:36:05.699Z,99.99
2022-10-11T00:37:05.433Z,99.99
2022-10-11T00:38:05.399Z,99.99
2022-10-11T00:39:05.434Z,99.99
2022-10-11T00:40:05.413Z,99.99
2022-10-11T00:41:05.393Z,99.99
2022-10-11T00:42:05.351Z,99.99
2022-10-11T00:43:05.351Z,99.99
2022-10-11T00:44:05.326Z,99.99
2022-10-11T00:45:05.322Z,99.99
2022-10-11T00:46:05.679Z,99.99
2022-10-11T00:47:05.334Z,99.99
2022-10-11T00:48:05.296Z,99.99
2022-10-11T00:49:05.435Z,99.99
2022-10-11T00:50:05.298Z,99.99
2022-10-11T00:51:05.606Z,99.99
2022-10-11T00:52:05.259Z,99.99
2022-10-11T00:53:05.239Z,99.99
2022-10-11T00:54:05.227Z,99.99
2022-10-11T00:55:05.230Z,99.99
2022-10-11T00:56:05.553Z,99.99
2022-10-11T00:57:05.204Z,99.99
2022-10-11T00:58:05.179Z,99.99
2022-10-11T00:59:05.296Z,99.99
2022-10-11T01:00:05.160Z,99.99
2022-10-11T01:01:05.216Z,99.99
2022-10-11T01:02:05.153Z,99.99
2022-10-11T01:03:05.135Z,99.99
2022-10-11T01:04:05.120Z,99.99
2022-10-11T01:05:27.633Z,99.99
2022-10-11T01:06:05.516Z,99.99
2022-10-11T01:07:05.113Z,99.99
2022-10-11T01:08:05.072Z,99.99
2022-10-11T01:09:05.095Z,99.99
2022-10-11T01:10:05.077Z,99.99
2022-10-11T01:11:05.051Z,99.99
2022-10-11T01:12:05.132Z,99.99
2022-10-11T01:13:05.041Z,99.99
2022-10-11T01:14:05.011Z,99.99
2022-10-11T01:15:05.029Z,99.99
2022-10-11T01:16:05.313Z,99.99
2022-10-11T01:17:05.005Z,99.99
2022-10-11T01:18:04.999Z,99.99
2022-10-11T01:19:04.987Z,99.99
2022-10-11T01:20:04.955Z,99.99
2022-10-11T01:21:04.945Z,99.99
2022-10-11T01:22:07.531Z,99.99
2022-10-11T01:23:04.934Z,99.99
2022-10-11T01:24:08.597Z,99.99
2022-10-11T01:25:04.906Z,99.99
2022-10-11T01:26:05.204Z,99.99
2022-10-11T01:27:04.889Z,99.99
2022-10-11T01:28:04.870Z,99.99
2022-10-11T01:29:04.872Z,99.99
2022-10-11T01:30:04.884Z,99.99
2022-10-11T01:31:04.853Z,99.99
2022-10-11T01:32:04.832Z,99.99
2022-10-11T01:33:04.827Z,99.99
2022-10-11T01:34:04.817Z,99.99
2022-10-11T01:35:04.805Z,99.99
2022-10-11T01:36:04.913Z,99.99
2022-10-11T01:37:04.776Z,99.99
2022-10-11T01:38:06.010Z,99.99
2022-10-11T01:39:04.776Z,99.99
2022-10-11T01:40:04.754Z,99.99
2022-10-11T01:41:04.743Z,99.99
2022-10-11T01:42:05.532Z,99.99
2022-10-11T01:43:04.748Z,99.99
2022-10-11T01:44:05.653Z,99.99
2022-10-11T01:45:04.707Z,99.99
2022-10-11T01:46:05.002Z,99.99
2022-10-11T01:47:04.688Z,99.99
2022-10-11T01:48:04.655Z,99.99
2022-10-11T01:49:04.650Z,99.99
2022-10-11T01:50:04.650Z,99.99
2022-10-11T01:51:04.651Z,99.99
2022-10-11T01:52:04.614Z,99.99
2022-10-11T01:53:04.608Z,99.99
2022-10-11T01:54:04.602Z,99.99
2022-10-11T01:55:09.618Z,99.99
2022-10-11T01:56:04.897Z,99.99
2022-10-11T01:57:04.611Z,99.99
2022-10-11T01:58:04.565Z,99.99
2022-10-11T01:59:04.555Z,99.99
2022-10-11T02:00:04.551Z,99.99
2022-10-11T02:01:04.565Z,99.99
2022-10-11T02:02:04.511Z,99.99
2022-10-11T02:03:04.514Z,99.99
2022-10-11T02:04:04.496Z,99.99
2022-10-11T02:05:04.499Z,99.99
2022-10-11T02:06:04.881Z,99.99
2022-10-11T02:07:04.475Z,99.99
2022-10-11T02:08:04.458Z,99.99
2022-10-11T02:09:07.907Z,99.99
2022-10-11T02:10:04.440Z,99.99
2022-10-11T02:11:04.443Z,99.99
2022-10-11T02:12:04.400Z,99.99
2022-10-11T02:13:04.421Z,99.99
2022-10-11T02:14:04.386Z,99.99
2022-10-11T02:15:04.390Z,99.99
2022-10-11T02:16:04.734Z,99.99
2022-10-11T02:17:04.360Z,99.99
2022-10-11T02:18:04.352Z,99.99
2022-10-11T02:19:04.374Z,99.99
2022-10-11T02:20:04.328Z,99.99
2022-10-11T02:21:04.324Z,99.99
2022-10-11T02:22:04.303Z,99.99
2022-10-11T02:23:04.310Z,99.99
2022-10-11T02:24:04.285Z,99.99
2022-10-11T02:25:04.291Z,99.99
2022-10-11T02:26:04.704Z,99.99
2022-10-11T02:27:04.271Z,99.99
2022-10-11T02:28:04.240Z,99.99
2022-10-11T02:29:04.240Z,99.99
2022-10-11T02:30:04.237Z,99.99
2022-10-11T02:31:04.223Z,99.99
2022-10-11T02:32:04.221Z,99.99
2022-10-11T02:33:04.201Z,99.99
2022-10-11T02:34:04.175Z,99.99
2022-10-11T02:35:04.192Z,99.99
2022-10-11T02:36:04.399Z,99.99
2022-10-11T02:37:04.164Z,99.99
2022-10-11T02:38:04.142Z,99.99
2022-10-11T02:39:04.139Z,99.99
2022-10-11T02:40:04.118Z,99.99
2022-10-11T02:41:04.133Z,99.99
2022-10-11T02:42:04.119Z,99.99
2022-10-11T02:43:04.105Z,99.99
2022-10-11T02:44:04.079Z,99.99
2022-10-11T02:45:04.064Z,99.99
2022-10-11T02:46:04.548Z,99.99
2022-10-11T02:47:04.055Z,99.99
2022-10-11T02:48:04.033Z,99.99
2022-10-11T02:49:04.049Z,99.99
2022-10-11T02:50:04.014Z,99.99
2022-10-11T02:51:04.038Z,99.99
2022-10-11T02:52:04.000Z,99.99
2022-10-11T02:53:03.976Z,99.99
2022-10-11T02:54:03.979Z,99.99
2022-10-11T02:55:03.966Z,99.99
2022-10-11T02:56:04.261Z,99.99
2022-10-11T02:57:03.969Z,99.99
2022-10-11T02:58:03.937Z,99.99
2022-10-11T02:59:03.936Z,99.99
2022-10-11T03:00:03.918Z,99.99
2022-10-11T03:01:03.922Z,99.99
2022-10-11T03:02:03.944Z,99.99
2022-10-11T03:03:03.912Z,99.99
2022-10-11T03:04:03.869Z,99.99
2022-10-11T03:05:03.874Z,99.99
2022-10-11T03:06:04.249Z,99.99
2022-10-11T03:07:03.847Z,99.99
2022-10-11T03:08:03.822Z,99.99
2022-10-11T03:09:03.832Z,99.99
2022-10-11T03:10:03.846Z,99.99
2022-10-11T03:11:03.806Z,99.99
2022-10-11T03:12:03.782Z,99.99
2022-10-11T03:13:03.786Z,99.99
2022-10-11T03:14:03.760Z,99.99
2022-10-11T03:15:03.774Z,99.99
2022-10-11T03:16:03.960Z,99.99
2022-10-11T03:17:23.714Z,99.99
2022-10-11T03:18:03.731Z,99.99
2022-10-11T03:19:03.723Z,99.99
2022-10-11T03:20:03.699Z,99.99
2022-10-11T03:21:03.708Z,99.99
2022-10-11T03:22:03.686Z,99.99
2022-10-11T03:23:03.679Z,99.99
2022-10-11T03:24:03.649Z,99.99
2022-10-11T03:25:04.760Z,99.99
2022-10-11T03:26:04.092Z,99.99
2022-10-11T03:27:03.646Z,99.99
2022-10-11T03:28:03.616Z,99.99
2022-10-11T03:29:03.619Z,99.99
2022-10-11T03:30:03.594Z,99.99
2022-10-11T03:31:03.755Z,99.99
2022-10-11T03:32:03.566Z,99.99
2022-10-11T03:33:03.564Z,99.99
2022-10-11T03:34:03.554Z,99.99
2022-10-11T03:35:03.549Z,99.99
2022-10-11T03:36:03.888Z,99.99
2022-10-11T03:37:03.550Z,99.99
2022-10-11T03:38:03.535Z,99.99
2022-10-11T03:39:03.498Z,99.99
2022-10-11T03:40:03.550Z,99.99
2022-10-11T03:41:03.490Z,99.99
2022-10-11T03:42:03.468Z,99.99
2022-10-11T03:43:03.460Z,99.99
2022-10-11T03:44:03.457Z,99.99
2022-10-11T03:45:03.434Z,99.99
2022-10-11T03:46:03.934Z,99.99
2022-10-11T03:47:04.456Z,99.99
2022-10-11T03:48:03.422Z,99.99
2022-10-11T03:49:03.399Z,99.99
2022-10-11T03:50:03.397Z,99.99
2022-10-11T03:51:03.414Z,99.99
2022-10-11T03:52:03.370Z,99.99
2022-10-11T03:53:03.350Z,99.99
2022-10-11T03:54:03.387Z,99.99
2022-10-11T03:55:03.338Z,99.99
2022-10-11T03:56:08.073Z,99.99
2022-10-11T03:57:03.327Z,99.99
2022-10-11T03:58:03.311Z,99.99
2022-10-11T03:59:03.291Z,99.99
2022-10-11T04:00:03.298Z,99.99
2022-10-11T04:01:03.269Z,99.99
2022-10-11T04:02:03.325Z,99.99
2022-10-11T04:03:03.242Z,99.99
2022-10-11T04:04:03.853Z,99.99
2022-10-11T04:05:03.242Z,99.99
2022-10-11T04:06:03.725Z,99.99
2022-10-11T04:07:03.290Z,99.99
2022-10-11T04:08:03.198Z,99.99
2022-10-11T04:09:03.196Z,99.99
2022-10-11T04:10:03.203Z,99.99
2022-10-11T04:11:03.163Z,99.99
2022-10-11T04:12:03.172Z,99.99
2022-10-11T04:13:03.152Z,99.99
2022-10-11T04:14:03.139Z,99.99
2022-10-11T04:15:03.126Z,99.99
2022-10-11T04:16:03.654Z,99.99
2022-10-11T04:17:03.098Z,99.99
2022-10-11T04:18:03.100Z,99.99
2022-10-11T04:19:03.083Z,99.99
2022-10-11T04:20:03.085Z,99.99
2022-10-11T04:21:03.085Z,99.99
2022-10-11T04:22:03.051Z,99.99
2022-10-11T04:23:03.045Z,99.99
2022-10-11T04:24:03.037Z,99.99
2022-10-11T04:25:03.028Z,99.99
2022-10-11T04:26:03.344Z,99.99
2022-10-11T04:27:02.989Z,99.99
2022-10-11T04:28:03.041Z,99.99
2022-10-11T04:29:02.985Z,99.99
2022-10-11T04:30:02.973Z,99.99
2022-10-11T04:31:02.963Z,99.99
2022-10-11T04:32:02.995Z,99.99
2022-10-11T04:33:02.936Z,99.99
2022-10-11T04:34:02.944Z,99.99
2022-10-11T04:35:04.758Z,99.99
2022-10-11T04:36:03.399Z,99.99
2022-10-11T04:37:02.897Z,99.99
2022-10-11T04:38:02.911Z,99.99
2022-10-11T04:39:02.872Z,99.99
2022-10-11T04:40:02.875Z,99.99
2022-10-11T04:41:02.855Z,99.99
2022-10-11T04:42:02.845Z,99.99
2022-10-11T04:43:02.865Z,99.99
2022-10-11T04:44:02.832Z,99.99
2022-10-11T04:45:02.812Z,99.99
2022-10-11T04:46:02.811Z,99.99
2022-10-11T04:47:02.784Z,99.99
2022-10-11T04:48:02.869Z,99.99
2022-10-11T04:49:02.778Z,99.99
2022-10-11T04:50:02.770Z,99.99
2022-10-11T04:51:02.746Z,99.99
2022-10-11T04:52:02.742Z,99.99
2022-10-11T04:53:02.739Z,99.99
2022-10-11T04:54:02.722Z,99.99
2022-10-11T04:55:02.762Z,99.99
2022-10-11T04:56:03.176Z,99.99
2022-10-11T04:57:02.683Z,99.99
2022-10-11T04:58:02.709Z,99.99
2022-10-11T04:59:02.662Z,99.99
2022-10-11T05:00:02.729Z,99.99
2022-10-11T05:01:02.646Z,99.99
2022-10-11T05:02:02.728Z,99.99
2022-10-11T05:03:02.621Z,99.99
2022-10-11T05:04:02.627Z,99.99
2022-10-11T05:05:02.622Z,99.99
2022-10-11T05:06:05.585Z,99.99
2022-10-11T05:07:02.589Z,99.99
2022-10-11T05:08:02.589Z,99.99
2022-10-11T05:09:02.558Z,99.99
2022-10-11T05:10:02.562Z,99.99
2022-10-11T05:11:02.534Z,99.99
2022-10-11T05:12:02.579Z,99.99
2022-10-11T05:13:02.533Z,99.99
2022-10-11T05:14:02.524Z,99.99
2022-10-11T05:15:02.500Z,99.99
2022-10-11T05:16:04.896Z,99.99
2022-10-11T05:17:02.482Z,99.99
2022-10-11T05:18:02.505Z,99.99
2022-10-11T05:19:02.413Z,99.99
2022-10-11T05:20:02.471Z,99.99
2022-10-11T05:21:02.435Z,99.99
2022-10-11T05:22:02.422Z,99.99
2022-10-11T05:23:02.396Z,99.99
2022-10-11T05:24:02.733Z,99.99
2022-10-11T05:25:02.415Z,99.99
2022-10-11T05:26:02.854Z,99.99
2022-10-11T05:27:03.567Z,99.99
2022-10-11T05:28:02.332Z,99.99
2022-10-11T05:29:02.447Z,99.99
2022-10-11T05:30:02.294Z,99.99
2022-10-11T05:31:02.280Z,99.99
2022-10-11T05:32:02.278Z,99.99
2022-10-11T05:33:02.270Z,99.99
2022-10-11T05:34:02.269Z,99.99
2022-10-11T05:35:02.234Z,99.99
2022-10-11T05:36:02.614Z,99.99
2022-10-11T05:37:02.215Z,99.99
2022-10-11T05:38:02.225Z,99.99
2022-10-11T05:39:02.207Z,99.99
2022-10-11T05:40:02.190Z,99.99
2022-10-11T05:41:02.175Z,99.99
2022-10-11T05:42:04.557Z,99.99
2022-10-11T05:43:02.151Z,99.99
2022-10-11T05:44:02.170Z,99.99
2022-10-11T05:45:02.130Z,99.99
2022-10-11T05:46:02.468Z,99.99
2022-10-11T05:47:02.119Z,99.99
2022-10-11T05:48:02.111Z,99.99
2022-10-11T05:49:02.130Z,99.99
2022-10-11T05:50:02.079Z,99.99
2022-10-11T05:51:02.104Z,99.99
2022-10-11T05:52:02.066Z,99.99
2022-10-11T05:53:02.066Z,99.99
2022-10-11T05:54:02.043Z,99.99
2022-10-11T05:55:02.046Z,99.99
2022-10-11T05:56:02.367Z,99.99
2022-10-11T05:57:02.026Z,99.99
2022-10-11T05:58:02.014Z,99.99
2022-10-11T05:59:02.636Z,99.99
2022-10-11T06:00:02.003Z,99.99
2022-10-11T06:01:02.093Z,99.99
2022-10-11T06:02:01.968Z,99.99
2022-10-11T06:03:01.941Z,99.99
2022-10-11T06:04:01.945Z,99.99
2022-10-11T06:05:01.941Z,99.99
2022-10-11T06:06:01.931Z,99.99
2022-10-11T06:07:01.904Z,99.99
2022-10-11T06:08:01.893Z,99.99
2022-10-11T06:09:01.987Z,99.99
2022-10-11T06:10:01.902Z,99.99
2022-10-11T06:11:01.863Z,99.99
2022-10-11T06:12:01.862Z,99.99
2022-10-11T06:13:01.845Z,99.99
2022-10-11T06:14:01.871Z,99.99
2022-10-11T06:15:01.837Z,99.99
2022-10-11T06:16:02.174Z,99.99
2022-10-11T06:17:02.571Z,99.99
2022-10-11T06:18:01.792Z,99.99
2022-10-11T06:19:01.771Z,99.99
2022-10-11T06:20:01.788Z,99.99
2022-10-11T06:21:01.761Z,99.99
2022-10-11T06:22:01.774Z,99.99
2022-10-11T06:23:01.737Z,99.99
2022-10-11T06:24:01.842Z,99.99
2022-10-11T06:25:01.715Z,99.99
2022-10-11T06:26:01.943Z,99.99
2022-10-11T06:27:01.714Z,99.99
2022-10-11T06:28:01.730Z,99.99
2022-10-11T06:29:01.784Z,99.99
2022-10-11T06:30:01.675Z,99.99
2022-10-11T06:31:01.650Z,99.99
2022-10-11T06:32:01.653Z,99.99
2022-10-11T06:33:04.758Z,99.99
2022-10-11T06:34:01.646Z,99.99
2022-10-11T06:35:01.631Z,99.99
2022-10-11T06:36:01.826Z,99.99
2022-10-11T06:37:01.584Z,99.99
2022-10-11T06:38:01.582Z,99.99
2022-10-11T06:39:01.600Z,99.99
2022-10-11T06:40:01.563Z,99.99
2022-10-11T06:41:01.607Z,99.99
2022-10-11T06:42:01.638Z,99.99
2022-10-11T06:43:01.518Z,99.99
2022-10-11T06:44:01.558Z,99.99
2022-10-11T06:45:01.508Z,99.99
2022-10-11T06:46:01.754Z,99.99
2022-10-11T06:47:01.545Z,99.99
2022-10-11T06:48:01.490Z,99.99
2022-10-11T06:49:01.466Z,99.99
2022-10-11T06:50:01.468Z,99.99
2022-10-11T06:51:01.521Z,99.99
2022-10-11T06:52:01.445Z,99.99
2022-10-11T06:53:01.417Z,99.99
2022-10-11T06:54:01.419Z,99.99
2022-10-11T06:55:01.397Z,99.99
2022-10-11T06:56:01.502Z,99.99
2022-10-11T06:57:01.380Z,99.99
2022-10-11T06:58:01.364Z,99.99
2022-10-11T06:59:01.356Z,99.99
2022-10-11T07:00:01.390Z,99.99
2022-10-11T07:01:01.403Z,99.99
2022-10-11T07:02:01.328Z,99.99
2022-10-11T07:03:01.305Z,99.99
2022-10-11T07:04:01.314Z,99.99
2022-10-11T07:05:01.321Z,99.99
2022-10-11T07:06:02.645Z,99.99
2022-10-11T07:07:01.290Z,99.99
2022-10-11T07:08:01.270Z,99.99
2022-10-11T07:09:01.260Z,99.99
2022-10-11T07:10:01.283Z,99.99
2022-10-11T07:11:01.260Z,99.99
2022-10-11T07:12:01.267Z,99.99
2022-10-11T07:13:01.207Z,99.99
2022-10-11T07:14:01.206Z,99.99
2022-10-11T07:15:01.204Z,99.99
2022-10-11T07:16:01.210Z,99.99
2022-10-11T07:17:01.179Z,99.99
2022-10-11T07:18:01.169Z,99.99
2022-10-11T07:19:01.447Z,99.99
2022-10-11T07:20:01.267Z,99.99
2022-10-11T07:21:01.146Z,99.99
2022-10-11T07:22:01.178Z,99.99
2022-10-11T07:23:01.104Z,99.99
2022-10-11T07:24:01.156Z,99.99
2022-10-11T07:25:01.078Z,99.99
2022-10-11T07:26:01.095Z,99.99
2022-10-11T07:27:01.107Z,99.99
2022-10-11T07:28:01.077Z,99.99
2022-10-11T07:29:01.174Z,99.99
2022-10-11T07:30:01.041Z,99.99
2022-10-11T07:31:02.025Z,99.99
2022-10-11T07:32:01.035Z,99.99
2022-10-11T07:33:00.997Z,99.99
2022-10-11T07:34:01.050Z,99.99
2022-10-11T07:35:00.983Z,99.99
2022-10-11T07:36:01.039Z,99.99
2022-10-11T07:37:00.988Z,99.99
2022-10-11T07:38:00.987Z,99.99
2022-10-11T07:39:00.974Z,99.99
2022-10-11T07:40:00.940Z,99.99
2022-10-11T07:41:00.916Z,99.99
2022-10-11T07:42:00.921Z,99.99
2022-10-11T07:43:00.927Z,99.99
2022-10-11T07:44:00.889Z,99.99
2022-10-11T07:45:00.879Z,99.99
2022-10-11T07:46:00.873Z,99.99
2022-10-11T07:47:00.854Z,99.99
2022-10-11T07:48:00.840Z,99.99
2022-10-11T07:49:00.858Z,99.99
2022-10-11T07:50:00.819Z,99.99
2022-10-11T07:51:00.824Z,99.99
2022-10-11T07:52:00.804Z,99.99
2022-10-11T07:53:00.817Z,99.99
2022-10-11T07:54:06.185Z,99.99
2022-10-11T07:55:00.769Z,99.99
2022-10-11T07:56:00.759Z,99.99
2022-10-11T07:57:00.758Z,99.99
2022-10-11T07:58:00.736Z,99.99
2022-10-11T07:59:00.760Z,99.99
2022-10-11T08:00:00.723Z,99.99
2022-10-11T08:01:00.745Z,99.99
2022-10-11T08:02:00.766Z,99.99
2022-10-11T08:03:00.693Z,99.99
2022-10-11T08:04:00.674Z,99.99
2022-10-11T08:05:00.711Z,99.99
2022-10-11T08:06:00.666Z,99.99
2022-10-11T08:07:00.648Z,99.99
2022-10-11T08:08:00.628Z,99.99
2022-10-11T08:09:00.646Z,99.99
2022-10-11T08:10:00.603Z,99.99
2022-10-11T08:11:00.610Z,99.99
2022-10-11T08:12:00.584Z,99.99
2022-10-11T08:13:04.202Z,99.91
2022-10-11T08:14:00.563Z,99.80
2022-10-11T08:15:00.570Z,97.86
2022-10-11T08:16:00.557Z,97.09
2022-10-11T08:17:00.533Z,97.91
2022-10-11T08:18:00.516Z,97.05
2022-10-11T08:19:00.610Z,96.54
2022-10-11T08:20:00.510Z,96.49
2022-10-11T08:21:00.496Z,96.91
2022-10-11T08:22:00.497Z,96.19
2022-10-11T08:23:00.477Z,95.12
2022-10-11T08:24:00.454Z,93.79
2022-10-11T08:25:00.460Z,93.07
2022-10-11T08:26:00.428Z,92.15
2022-10-11T08:27:00.435Z,91.23
2022-10-11T08:28:00.422Z,91.70
2022-10-11T08:29:00.546Z,92.11
2022-10-11T08:30:00.407Z,91.60
2022-10-11T08:31:00.391Z,91.66
2022-10-11T08:32:00.374Z,91.96
2022-10-11T08:33:02.189Z,92.17
2022-10-11T08:34:00.344Z,91.52
2022-10-11T08:35:00.357Z,91.52
2022-10-11T08:36:00.331Z,92.02
2022-10-11T08:37:00.334Z,89.73
2022-10-11T08:38:00.320Z,90.04
2022-10-11T08:39:00.307Z,90.61
2022-10-11T08:40:00.323Z,91.63
2022-10-11T08:41:00.286Z,91.59
2022-10-11T08:42:00.276Z,90.06
2022-10-11T08:43:00.276Z,89.96
2022-10-11T08:44:00.271Z,89.25
2022-10-11T08:45:15.678Z,90.12
2022-10-11T08:46:00.226Z,90.01
2022-10-11T08:47:00.628Z,88.69
2022-10-11T08:48:00.245Z,88.18
2022-10-11T08:49:00.214Z,87.67
2022-10-11T08:50:00.319Z,87.92
2022-10-11T08:51:00.175Z,88.32
2022-10-11T08:52:00.181Z,88.02
2022-10-11T08:53:00.159Z,88.22
2022-10-11T08:54:04.728Z,87.10
2022-10-11T08:55:00.134Z,88.32
2022-10-11T08:56:00.115Z,88.73
2022-10-11T08:57:00.152Z,89.20
2022-10-11T08:58:00.106Z,88.69
2022-10-11T08:59:00.103Z,87.47
2022-10-11T09:00:00.136Z,86.15
2022-10-11T09:01:00.095Z,87.12
2022-10-11T09:02:00.133Z,87.63
2022-10-11T09:03:09.032Z,86.61
2022-10-11T09:04:00.046Z,87.12
2022-10-11T09:05:00.039Z,86.51
2022-10-11T09:06:00.036Z,85.86
2022-10-11T09:07:04.583Z,86.16
2022-10-11T09:07:59.986Z,86.47
2022-10-11T09:08:59.995Z,85.75
2022-10-11T09:09:59.960Z,85.96
2022-10-11T09:11:00.037Z,86.22
2022-10-11T09:11:59.984Z,83.27
2022-10-11T09:12:59.938Z,85.17
2022-10-11T09:13:59.922Z,84.19
2022-10-11T09:14:59.922Z,86.08
2022-10-11T09:15:59.897Z,85.72
2022-10-11T09:16:59.905Z,86.08
2022-10-11T09:17:59.886Z,84.86
2022-10-11T09:18:59.855Z,85.58
2022-10-11T09:19:59.857Z,81.74
2022-10-11T09:20:59.854Z,81.95
2022-10-11T09:21:59.854Z,81.44
2022-10-11T09:22:59.845Z,81.74
2022-10-11T09:23:59.804Z,81.74
2022-10-11T09:24:59.817Z,82.66
2022-10-11T09:25:59.793Z,83.03
2022-10-11T09:26:59.783Z,82.73
2022-10-11T09:28:03.876Z,81.20
2022-10-11T09:29:01.481Z,80.18
2022-10-11T09:29:59.758Z,82.32
2022-10-11T09:30:59.747Z,82.48
2022-10-11T09:31:59.722Z,83.40
2022-10-11T09:32:59.754Z,83.20
2022-10-11T09:33:59.711Z,84.21
2022-10-11T09:34:59.699Z,82.18
2022-10-11T09:35:59.688Z,79.88
2022-10-11T09:36:59.677Z,80.24
2022-10-11T09:37:59.665Z,80.96
2022-10-11T09:39:04.252Z,81.67
2022-10-11T09:39:59.646Z,81.98
2022-10-11T09:40:59.640Z,78.01
2022-10-11T09:41:59.606Z,77.91
2022-10-11T09:42:59.628Z,80.21
2022-10-11T09:43:59.597Z,78.38
2022-10-11T09:44:59.600Z,79.29
2022-10-11T09:45:59.574Z,79.80
2022-10-11T09:46:59.568Z,81.43
2022-10-11T09:47:59.553Z,78.85
2022-10-11T09:48:59.582Z,74.79
2022-10-11T09:49:59.541Z,74.95
2022-10-11T09:50:59.528Z,74.41
2022-10-11T09:51:59.520Z,75.09
2022-10-11T09:52:59.523Z,72.52
2022-10-11T09:53:59.517Z,72.68
2022-10-11T09:54:59.475Z,71.26
2022-10-11T09:55:59.477Z,73.56
2022-10-11T09:56:59.463Z,71.73
2022-10-11T09:57:59.445Z,70.21
2022-10-11T09:58:59.452Z,70.42
2022-10-11T09:59:59.471Z,70.12
2022-10-11T10:01:02.786Z,68.09
2022-10-11T10:01:59.434Z,68.36
2022-10-11T10:02:59.404Z,68.46
2022-10-11T10:03:59.404Z,66.44
2022-10-11T10:04:59.380Z,66.71
2022-10-11T10:05:59.363Z,64.96
2022-10-11T10:06:59.360Z,64.70
2022-10-11T10:08:04.069Z,64.06
2022-10-11T10:08:59.355Z,63.70
2022-10-11T10:09:59.323Z,59.05
2022-10-11T10:10:59.844Z,60.77
2022-10-11T10:11:59.304Z,57.03
2022-10-11T10:12:59.291Z,57.23
2022-10-11T10:13:59.435Z,57.91
2022-10-11T10:14:59.596Z,56.98
2022-10-11T10:15:59.251Z,56.17
2022-10-11T10:16:59.252Z,54.99
2022-10-11T10:17:59.341Z,53.95
2022-10-11T10:18:59.227Z,55.33
2022-10-11T10:19:59.232Z,52.82
2022-10-11T10:20:59.225Z,52.39
2022-10-11T10:21:59.200Z,53.27
2022-10-11T10:22:59.195Z,52.57
2022-10-11T10:23:59.163Z,51.09
2022-10-11T10:24:59.222Z,52.04
2022-10-11T10:25:59.146Z,50.48
2022-10-11T10:26:59.122Z,51.34
2022-10-11T10:27:59.125Z,48.58
2022-10-11T10:28:59.250Z,49.29
2022-10-11T10:29:59.109Z,47.99
2022-10-11T10:30:59.110Z,49.11
2022-10-11T10:32:13.770Z,49.25
2022-10-11T10:32:59.166Z,50.11
2022-10-11T10:33:59.063Z,47.88
2022-10-11T10:34:59.055Z,46.73
2022-10-11T10:35:59.061Z,46.55
2022-10-11T10:36:59.041Z,46.77
2022-10-11T10:37:59.019Z,48.75
2022-10-11T10:38:59.022Z,46.15
2022-10-11T10:39:58.996Z,46.73
2022-10-11T10:40:59.010Z,47.05
2022-10-11T10:41:58.975Z,47.33
2022-10-11T10:42:58.969Z,46.93
2022-10-11T10:43:58.958Z,47.61
2022-10-11T10:44:58.957Z,46.70
2022-10-11T10:45:58.962Z,46.12
2022-10-11T10:46:58.953Z,48.16
2022-10-11T10:47:58.913Z,46.54
2022-10-11T10:49:58.894Z,44.82
2022-10-11T10:50:58.901Z,44.93
2022-10-11T10:51:58.975Z,45.54
2022-10-11T10:52:58.874Z,44.93
2022-10-11T10:53:58.852Z,43.13
2022-10-11T10:54:58.850Z,43.91
2022-10-11T10:55:58.830Z,45.74
2022-10-11T10:56:58.857Z,45.97
2022-10-11T10:57:58.803Z,43.53
2022-10-11T10:58:58.819Z,41.61
2022-10-11T10:59:58.805Z,38.56
2022-10-11T11:00:58.790Z,42.15
2022-10-11T11:02:06.784Z,42.29
2022-10-11T11:02:58.876Z,42.40
2022-10-11T11:03:58.753Z,43.01
2022-10-11T11:05:58.736Z,43.41
2022-10-11T11:06:58.743Z,42.91
2022-10-11T11:07:58.738Z,43.24
2022-10-11T11:08:58.715Z,44.13
2022-10-11T11:09:58.686Z,43.66
2022-10-11T11:10:58.692Z,45.40
2022-10-11T11:11:58.756Z,46.07
2022-10-11T11:12:58.675Z,49.63
2022-10-11T11:13:58.658Z,48.57
2022-10-11T11:14:58.650Z,50.10
2022-10-11T11:15:58.636Z,49.16
2022-10-11T11:16:58.638Z,51.79
2022-10-11T11:17:58.639Z,50.60
2022-10-11T11:18:58.605Z,52.22
2022-10-11T11:19:58.700Z,52.74
2022-10-11T11:20:58.579Z,52.14
2022-10-11T11:21:58.571Z,52.42
2022-10-11T11:22:58.584Z,51.53
2022-10-11T11:23:58.550Z,52.34
2022-10-11T11:24:58.553Z,51.84
2022-10-11T11:25:58.520Z,51.61
2022-10-11T11:26:58.541Z,53.30
2022-10-11T11:27:58.507Z,53.42
2022-10-11T11:28:58.507Z,52.54
2022-10-11T11:29:58.487Z,52.76
2022-10-11T11:30:58.523Z,53.58
2022-10-11T11:31:58.466Z,54.28
2022-10-11T11:32:58.471Z,54.46
2022-10-11T11:33:58.441Z,51.66
2022-10-11T11:34:58.438Z,53.47
2022-10-11T11:35:58.422Z,53.05
2022-10-11T11:36:58.432Z,53.45
2022-10-11T11:38:03.878Z,52.84
2022-10-11T11:38:58.429Z,51.53
2022-10-11T11:39:58.391Z,53.55
2022-10-11T11:40:58.383Z,52.24
2022-10-11T11:41:58.356Z,52.26
2022-10-11T11:42:58.346Z,50.75
2022-10-11T11:43:58.360Z,52.94
2022-10-11T11:44:58.343Z,51.20
2022-10-11T11:45:58.325Z,49.77
2022-10-11T11:46:58.315Z,49.77
2022-10-11T11:47:58.297Z,50.98
2022-10-11T11:48:58.341Z,49.16
2022-10-11T11:49:58.275Z,49.77
2022-10-11T11:50:58.266Z,49.87
2022-10-11T11:51:58.277Z,48.08
2022-10-11T11:52:58.250Z,48.38
2022-10-11T11:53:58.260Z,49.87
2022-10-11T11:55:03.027Z,50.33
2022-10-11T11:55:58.218Z,48.94
2022-10-11T11:56:58.215Z,49.75
2022-10-11T11:58:00.173Z,49.95
2022-10-11T11:58:58.234Z,49.55
2022-10-11T11:59:58.195Z,48.74
2022-10-11T12:00:58.173Z,48.84
2022-10-11T12:01:58.195Z,48.36
2022-10-11T12:02:58.155Z,48.02
2022-10-11T12:03:58.159Z,48.73
2022-10-11T12:04:58.144Z,49.46
2022-10-11T12:05:58.139Z,49.30
2022-10-11T12:07:15.015Z,53.07
2022-10-11T12:07:58.117Z,52.14
2022-10-11T12:08:58.108Z,50.70
2022-10-11T12:09:58.102Z,48.65
2022-10-11T12:10:58.061Z,49.66
2022-10-11T12:11:58.069Z,51.05
2022-10-11T12:12:58.037Z,50.78
2022-10-11T12:13:58.042Z,51.38
2022-10-11T12:14:58.035Z,49.76
2022-10-11T12:15:58.028Z,50.19
2022-10-11T12:16:58.001Z,51.43
2022-10-11T12:17:58.008Z,52.11
2022-10-11T12:18:57.975Z,52.01
2022-10-11T12:19:57.993Z,52.39
2022-10-11T12:20:57.938Z,51.35
2022-10-11T12:21:57.966Z,51.03
2022-10-11T12:22:57.928Z,51.79
2022-10-11T12:23:57.979Z,50.23
2022-10-11T12:24:57.941Z,48.85
2022-10-11T12:25:57.910Z,47.27
2022-10-11T12:26:57.891Z,46.04
2022-10-11T12:27:57.892Z,45.92
2022-10-11T12:28:57.867Z,44.10
2022-10-11T12:29:57.873Z,41.77
2022-10-11T12:30:57.865Z,41.35
2022-10-11T12:31:57.843Z,41.80
2022-10-11T12:32:57.824Z,40.45
2022-10-11T12:33:57.820Z,38.98
2022-10-11T12:34:57.819Z,39.02
2022-10-11T12:35:57.818Z,36.72
2022-10-11T12:36:57.780Z,36.43
2022-10-11T12:37:57.791Z,38.89
2022-10-11T12:38:57.766Z,35.69
2022-10-11T12:39:57.760Z,36.11
2022-10-11T12:40:57.756Z,35.33
2022-10-11T12:41:57.746Z,35.88
2022-10-11T12:42:57.722Z,36.55
2022-10-11T12:43:57.721Z,35.42
2022-10-11T12:44:57.696Z,32.41
2022-10-11T12:45:57.726Z,34.00
2022-10-11T12:46:57.687Z,35.10
2022-10-11T12:47:57.682Z,35.28
2022-10-11T12:48:57.674Z,35.08
2022-10-11T12:49:57.663Z,35.28
2022-10-11T12:51:02.834Z,37.14
2022-10-11T12:51:57.668Z,39.91
2022-10-11T12:52:57.615Z,37.74
2022-10-11T12:54:21.570Z,37.23